createdAt,value
2022-11-27T00:01:36.407Z,94.46
2022-11-27T00:04:09.442Z,94.73
2022-11-27T00:06:42.932Z,94.82
2022-11-27T00:09:14.800Z,94.86
2022-11-27T00:11:44.526Z,94.77
2022-11-27T00:14:17.034Z,94.89
2022-11-27T00:16:45.352Z,94.64
2022-11-27T00:19:13.435Z,94.72
2022-11-27T00:21:41.592Z,94.67
2022-11-27T00:24:12.057Z,94.73
2022-11-27T00:26:40.191Z,94.66
2022-11-27T00:29:09.163Z,94.83
2022-11-27T00:31:38.050Z,94.63
2022-11-27T00:34:08.865Z,94.71
2022-11-27T00:36:38.085Z,94.75
2022-11-27T00:39:07.094Z,94.84
2022-11-27T00:41:35.558Z,94.79
2022-11-27T00:44:04.465Z,94.80
2022-11-27T00:46:35.731Z,95.01
2022-11-27T00:49:06.740Z,94.97
2022-11-27T00:51:36.437Z,94.83
2022-11-27T00:54:05.094Z,94.77
2022-11-27T00:56:36.194Z,94.84
2022-11-27T00:59:06.646Z,94.91
2022-11-27T01:01:41.765Z,94.87
2022-11-27T01:04:14.237Z,95.03
2022-11-27T01:06:43.307Z,95.05
2022-11-27T01:09:16.539Z,94.86
2022-11-27T01:11:44.670Z,94.78
2022-11-27T01:14:20.270Z,94.91
2022-11-27T01:16:48.370Z,94.92
2022-11-27T01:19:16.772Z,94.76
2022-11-27T01:21:45.795Z,94.49
2022-11-27T01:24:15.681Z,94.41
2022-11-27T01:26:44.579Z,94.17
2022-11-27T01:29:13.122Z,93.93
2022-11-27T01:31:41.439Z,93.82
2022-11-27T01:34:15.448Z,93.70
2022-11-27T01:36:43.922Z,93.72
2022-11-27T01:39:18.470Z,93.77
2022-11-27T01:41:48.788Z,93.53
2022-11-27T01:44:26.330Z,93.61
2022-11-27T01:47:07.915Z,93.39
2022-11-27T01:49:38.377Z,93.38
2022-11-27T01:52:29.795Z,93.41
2022-11-27T01:55:21.909Z,93.43
2022-11-27T01:57:59.226Z,93.38
2022-11-27T02:00:28.045Z,93.45
2022-11-27T02:02:56.299Z,93.23
2022-11-27T02:05:28.864Z,92.99
2022-11-27T02:07:59.188Z,92.97
2022-11-27T02:10:51.653Z,92.83
2022-11-27T02:13:31.155Z,93.12
2022-11-27T02:16:24.329Z,93.14
2022-11-27T02:19:27.189Z,93.59
2022-11-27T02:22:17.335Z,93.69
2022-11-27T02:25:07.519Z,93.84
2022-11-27T02:28:11.140Z,94.05
2022-11-27T02:30:46.368Z,94.09
2022-11-27T02:33:20.034Z,94.42
2022-11-27T02:36:07.757Z,94.57
2022-11-27T02:38:45.195Z,94.60
2022-11-27T02:41:19.880Z,94.50
2022-11-27T02:43:51.006Z,94.22
2022-11-27T02:46:21.172Z,94.09
2022-11-27T02:48:52.959Z,94.10
2022-11-27T02:51:25.739Z,94.19
2022-11-27T02:54:01.930Z,94.16
2022-11-27T02:56:32.731Z,94.07
2022-11-27T02:59:06.839Z,93.91
2022-11-27T03:01:41.676Z,94.14
2022-11-27T03:04:17.990Z,94.20
2022-11-27T03:06:54.904Z,94.24
2022-11-27T03:09:49.565Z,94.37
2022-11-27T03:12:19.486Z,94.09
2022-11-27T03:14:48.902Z,94.17
2022-11-27T03:17:41.232Z,94.30
2022-11-27T03:20:25.871Z,94.53
2022-11-27T03:22:57.558Z,94.31
2022-11-27T03:25:25.746Z,94.16
2022-11-27T03:28:08.500Z,94.03
2022-11-27T03:30:38.158Z,94.08
2022-11-27T03:33:08.316Z,94.17
2022-11-27T03:35:39.283Z,94.22
2022-11-27T03:38:07.366Z,94.60
2022-11-27T03:41:10.206Z,94.50
2022-11-27T03:43:46.931Z,94.61
2022-11-27T03:46:32.576Z,94.94
2022-11-27T03:49:15.444Z,95.01
2022-11-27T03:52:03.695Z,95.10
2022-11-27T03:54:49.740Z,95.26
2022-11-27T03:57:34.182Z,95.45
2022-11-27T04:00:07.347Z,95.30
2022-11-27T04:02:47.932Z,95.47
2022-11-27T04:05:16.902Z,95.50
2022-11-27T04:07:44.954Z,95.39
2022-11-27T04:10:13.176Z,95.31
2022-11-27T04:12:41.233Z,95.12
2022-11-27T04:15:09.701Z,95.12
2022-11-27T04:17:37.730Z,95.39
2022-11-27T04:20:06.996Z,95.49
2022-11-27T04:22:35.414Z,95.31
2022-11-27T04:25:04.173Z,95.49
2022-11-27T04:27:32.583Z,95.49
2022-11-27T04:30:00.831Z,95.27
2022-11-27T04:32:29.267Z,95.23
2022-11-27T04:34:57.483Z,95.22
2022-11-27T04:37:25.926Z,95.34
2022-11-27T04:39:54.057Z,95.40
2022-11-27T04:42:22.605Z,95.38
2022-11-27T04:44:50.805Z,95.38
2022-11-27T04:47:19.074Z,95.63
2022-11-27T04:49:47.320Z,95.58
2022-11-27T04:52:15.483Z,95.49
2022-11-27T04:54:43.722Z,95.51
2022-11-27T04:57:11.712Z,95.34
2022-11-27T04:59:39.759Z,95.37
2022-11-27T05:02:07.872Z,95.20
2022-11-27T05:04:35.963Z,95.19
2022-11-27T05:07:04.061Z,95.48
2022-11-27T05:09:32.195Z,95.44
2022-11-27T05:12:00.766Z,95.29
2022-11-27T05:14:29.393Z,95.48
2022-11-27T05:16:59.370Z,95.30
2022-11-27T05:19:30.686Z,95.65
2022-11-27T05:21:59.123Z,95.80
2022-11-27T05:24:29.172Z,96.17
2022-11-27T05:26:58.070Z,96.06
2022-11-27T05:29:26.551Z,95.71
2022-11-27T05:31:54.730Z,95.65
2022-11-27T05:34:23.215Z,95.62
2022-11-27T05:36:51.217Z,95.65
2022-11-27T05:39:19.264Z,95.73
2022-11-27T05:41:47.457Z,95.67
2022-11-27T05:44:15.886Z,95.36
2022-11-27T05:46:44.336Z,95.29
2022-11-27T05:49:15.005Z,95.52
2022-11-27T05:51:50.370Z,95.31
2022-11-27T05:54:19.478Z,95.01
2022-11-27T05:56:47.739Z,94.90
2022-11-27T05:59:16.301Z,95.04
2022-11-27T06:01:44.491Z,94.87
2022-11-27T06:04:12.714Z,95.12
2022-11-27T06:06:40.970Z,95.01
2022-11-27T06:09:12.790Z,94.86
2022-11-27T06:11:42.905Z,95.05
2022-11-27T06:14:11.933Z,95.23
2022-11-27T06:16:40.133Z,95.39
2022-11-27T06:19:09.227Z,95.57
2022-11-27T06:21:37.488Z,96.17
2022-11-27T06:24:06.049Z,96.74
2022-11-27T06:26:34.506Z,96.82
2022-11-27T06:29:03.404Z,97.01
2022-11-27T06:31:33.223Z,97.04
2022-11-27T06:34:02.524Z,96.95
2022-11-27T06:36:34.247Z,97.25
2022-11-27T06:39:05.743Z,97.22
2022-11-27T06:41:34.388Z,97.06
2022-11-27T06:44:02.630Z,96.92
2022-11-27T06:46:30.817Z,97.04
2022-11-27T06:48:59.724Z,96.93
2022-11-27T06:51:30.342Z,96.98
2022-11-27T06:54:02.341Z,97.15
2022-11-27T06:56:31.773Z,96.92
2022-11-27T06:59:05.738Z,97.00
2022-11-27T07:01:35.190Z,96.79
2022-11-27T07:04:03.345Z,96.79
2022-11-27T07:06:31.539Z,96.78
2022-11-27T07:08:59.806Z,97.04
2022-11-27T07:11:30.470Z,97.44
2022-11-27T07:14:02.800Z,97.52
2022-11-27T07:16:36.830Z,97.45
2022-11-27T07:19:08.740Z,97.44
2022-11-27T07:21:40.894Z,97.38
2022-11-27T07:24:09.013Z,97.85
2022-11-27T07:26:36.978Z,98.46
2022-11-27T07:29:05.229Z,98.64
2022-11-27T07:31:33.401Z,98.82
2022-11-27T07:34:01.927Z,98.69
2022-11-27T07:36:31.001Z,98.49
2022-11-27T07:38:59.220Z,98.17
2022-11-27T07:41:33.517Z,98.28
2022-11-27T07:44:03.255Z,98.48
2022-11-27T07:46:31.429Z,98.21
2022-11-27T07:49:00.930Z,98.25
2022-11-27T07:51:30.170Z,98.41
2022-11-27T07:54:00.049Z,98.69
2022-11-27T07:56:28.134Z,98.46
2022-11-27T07:58:57.465Z,98.40
2022-11-27T08:01:25.837Z,98.08
2022-11-27T08:03:53.946Z,97.78
2022-11-27T08:06:27.351Z,97.91
2022-11-27T08:08:58.620Z,98.02
2022-11-27T08:11:30.238Z,97.93
2022-11-27T08:14:01.386Z,97.60
2022-11-27T08:16:30.804Z,97.44
2022-11-27T08:18:59.339Z,97.41
2022-11-27T08:21:28.748Z,97.35
2022-11-27T08:23:58.271Z,97.40
2022-11-27T08:27:48.696Z,97.31
2022-11-27T08:30:16.946Z,97.69
2022-11-27T08:32:45.488Z,97.33
2022-11-27T08:35:13.901Z,96.86
2022-11-27T08:37:42.290Z,96.55
2022-11-27T08:40:11.140Z,96.41
2022-11-27T08:42:39.255Z,96.12
2022-11-27T08:45:08.128Z,96.01
2022-11-27T08:47:36.494Z,95.94
2022-11-27T08:50:05.209Z,96.06
2022-11-27T08:52:33.345Z,96.47
2022-11-27T08:55:01.625Z,96.70
2022-11-27T08:57:29.839Z,96.89
2022-11-27T08:59:58.047Z,96.72
2022-11-27T09:02:26.242Z,96.63
2022-11-27T09:04:54.471Z,96.37
2022-11-27T09:07:23.003Z,96.24
2022-11-27T09:09:50.999Z,96.21
2022-11-27T09:12:19.190Z,96.30
2022-11-27T09:14:49.541Z,95.98
2022-11-27T09:17:18.918Z,96.02
2022-11-27T09:19:47.586Z,95.97
2022-11-27T09:22:15.902Z,95.76
2022-11-27T09:24:44.119Z,95.62
2022-11-27T09:27:12.280Z,95.85
2022-11-27T09:29:40.458Z,95.86
2022-11-27T09:32:08.681Z,95.98
2022-11-27T09:34:37.603Z,96.00
2022-11-27T09:37:06.361Z,95.56
2022-11-27T09:39:34.931Z,95.21
2022-11-27T09:42:09.795Z,95.11
2022-11-27T09:44:45.729Z,95.37
2022-11-27T09:47:41.909Z,95.17
2022-11-27T09:50:10.557Z,94.88
2022-11-27T09:52:41.296Z,94.71
2022-11-27T09:55:15.536Z,94.32
2022-11-27T09:57:54.035Z,93.68
2022-11-27T10:00:22.898Z,93.21
2022-11-27T10:02:51.546Z,93.20
2022-11-27T10:05:26.843Z,92.87
2022-11-27T10:08:03.245Z,92.37
2022-11-27T10:10:59.444Z,92.24
2022-11-27T10:13:46.179Z,92.23
2022-11-27T10:16:23.076Z,92.18
2022-11-27T10:19:22.606Z,92.23
2022-11-27T10:22:21.164Z,92.32
2022-11-27T10:25:21.173Z,92.15
2022-11-27T10:28:11.270Z,91.26
2022-11-27T10:30:55.110Z,91.05
2022-11-27T10:33:33.483Z,91.11
2022-11-27T10:36:01.700Z,90.97
2022-11-27T10:38:35.265Z,90.81
2022-11-27T10:41:07.729Z,90.70
2022-11-27T10:43:37.960Z,90.50
2022-11-27T10:46:21.972Z,90.03
2022-11-27T10:48:50.415Z,89.38
2022-11-27T10:51:31.402Z,89.41
2022-11-27T10:54:01.795Z,89.35
2022-11-27T10:57:01.275Z,89.62
2022-11-27T10:59:37.924Z,89.60
2022-11-27T11:02:09.148Z,89.22
2022-11-27T11:04:38.936Z,88.78
2022-11-27T11:07:29.515Z,88.75
2022-11-27T11:09:57.955Z,88.89
2022-11-27T11:12:26.175Z,89.07
2022-11-27T11:15:01.857Z,89.14
2022-11-27T11:17:37.640Z,89.59
2022-11-27T11:20:26.020Z,89.55
2022-11-27T11:22:54.498Z,89.00
2022-11-27T11:25:22.635Z,89.03
2022-11-27T11:27:52.700Z,89.04
2022-11-27T11:30:24.056Z,89.01
2022-11-27T11:33:03.408Z,88.61
2022-11-27T11:35:35.404Z,88.72
2022-11-27T11:38:07.897Z,88.90
2022-11-27T11:40:38.156Z,88.66
2022-11-27T11:43:23.323Z,88.54
2022-11-27T11:45:51.540Z,88.67
2022-11-27T11:48:24.296Z,88.70
2022-11-27T11:51:07.617Z,88.66
2022-11-27T11:53:40.579Z,88.61
2022-11-27T11:56:11.761Z,88.29
2022-11-27T11:59:01.633Z,87.92
2022-11-27T12:01:46.454Z,87.99
2022-11-27T12:04:33.927Z,88.14
2022-11-27T12:07:04.592Z,88.13
2022-11-27T12:09:46.601Z,88.32
2022-11-27T12:12:43.940Z,88.58
2022-11-27T12:15:17.323Z,88.74
2022-11-27T12:18:26.339Z,88.67
2022-11-27T12:21:05.190Z,88.92
2022-11-27T12:23:45.156Z,89.16
2022-11-27T12:26:18.820Z,89.33
2022-11-27T12:28:59.181Z,89.64
2022-11-27T12:31:42.006Z,89.75
2022-11-27T12:34:38.487Z,89.32
2022-11-27T12:37:26.340Z,89.47
2022-11-27T12:40:18.493Z,89.67
2022-11-27T12:43:09.636Z,89.57
2022-11-27T12:45:53.821Z,89.52
2022-11-27T12:48:39.760Z,89.59
2022-11-27T12:51:16.426Z,89.49
2022-11-27T12:54:04.187Z,89.30
2022-11-27T12:56:41.846Z,89.04
2022-11-27T12:59:25.732Z,89.06
2022-11-27T13:02:09.200Z,89.00
2022-11-27T13:04:45.204Z,89.04
2022-11-27T13:07:45.849Z,88.91
2022-11-27T13:10:28.762Z,89.01
2022-11-27T13:13:23.061Z,89.36
2022-11-27T13:16:11.616Z,89.96
2022-11-27T13:18:55.298Z,90.24
2022-11-27T13:21:30.212Z,90.43
2022-11-27T13:24:12.840Z,90.77
2022-11-27T13:26:55.097Z,90.71
2022-11-27T13:29:34.549Z,90.74
2022-11-27T13:32:05.199Z,90.75
2022-11-27T13:34:43.173Z,90.70
2022-11-27T13:37:42.009Z,90.98
2022-11-27T13:40:12.832Z,91.06
2022-11-27T13:42:45.544Z,91.24
2022-11-27T13:45:44.115Z,91.31
2022-11-27T13:48:38.758Z,91.37
2022-11-27T13:51:10.286Z,91.67
2022-11-27T13:53:41.095Z,91.49
2022-11-27T13:56:10.067Z,91.45
2022-11-27T13:58:42.259Z,91.42
2022-11-27T14:01:19.513Z,91.03
2022-11-27T14:03:48.965Z,90.95
2022-11-27T14:06:19.084Z,90.89
2022-11-27T14:08:59.605Z,90.95
2022-11-27T14:11:44.529Z,90.91
2022-11-27T14:14:23.443Z,91.24
2022-11-27T14:16:59.021Z,91.61
2022-11-27T14:19:59.747Z,91.72
2022-11-27T14:22:48.493Z,92.05
2022-11-27T14:25:30.188Z,92.51
2022-11-27T14:28:30.803Z,92.70
2022-11-27T14:31:01.964Z,92.72
2022-11-27T14:33:59.707Z,93.45
2022-11-27T14:36:28.543Z,93.99
2022-11-27T14:38:57.191Z,93.96
2022-11-27T14:41:27.407Z,93.83
2022-11-27T14:44:02.788Z,94.21
2022-11-27T14:46:36.262Z,94.39
2022-11-27T14:49:04.708Z,94.35
2022-11-27T14:51:35.905Z,94.21
2022-11-27T14:54:11.400Z,94.31
2022-11-27T14:56:43.606Z,94.71
2022-11-27T14:59:23.556Z,94.89
2022-11-27T15:02:07.443Z,94.79
2022-11-27T15:04:39.147Z,94.84
2022-11-27T15:07:45.225Z,94.87
2022-11-27T15:10:22.253Z,95.28
2022-11-27T15:12:51.161Z,95.46
2022-11-27T15:15:42.101Z,95.19
2022-11-27T15:18:27.653Z,95.52
2022-11-27T15:20:57.335Z,95.79
2022-11-27T15:23:31.719Z,95.87
2022-11-27T15:25:59.858Z,95.57
2022-11-27T15:28:32.510Z,95.77
2022-11-27T15:31:01.276Z,95.80
2022-11-27T15:33:32.575Z,96.27
2022-11-27T15:36:20.063Z,96.96
2022-11-27T15:38:51.333Z,97.26
2022-11-27T15:41:26.165Z,97.29
2022-11-27T15:43:55.799Z,97.31
2022-11-27T15:46:30.380Z,97.27
2022-11-27T15:48:58.946Z,97.32
2022-11-27T15:51:26.939Z,97.53
2022-11-27T15:53:55.127Z,97.35
2022-11-27T15:56:23.199Z,97.27
2022-11-27T15:58:51.339Z,97.37
2022-11-27T16:01:19.428Z,97.36
2022-11-27T16:21:35.308Z,97.51
2022-11-27T16:26:19.260Z,97.93
2022-11-27T16:29:05.807Z,98.24
2022-11-27T16:31:52.173Z,98.40
2022-11-27T16:34:37.729Z,98.21
2022-11-27T16:39:56.780Z,98.06
2022-11-27T16:54:49.224Z,97.87
2022-11-27T16:57:51.363Z,98.22
2022-11-27T17:01:48.139Z,98.77
2022-11-27T17:05:51.549Z,99.22
2022-11-27T17:10:15.104Z,99.52
2022-11-27T17:14:26.951Z,99.89
2022-11-27T17:17:53.873Z,100.00
2022-11-27T17:21:50.625Z,100.00
2022-11-27T17:36:37.162Z,99.30
2022-11-27T17:39:36.034Z,99.44
2022-11-27T17:44:04.796Z,100.00
2022-11-27T17:48:19.393Z,100.00
2022-11-27T17:51:42.265Z,100.00
2022-11-27T17:54:28.650Z,100.00
2022-11-27T17:57:15.109Z,100.00
2022-11-27T18:00:04.245Z,100.00
2022-11-27T18:02:50.662Z,100.00
2022-11-27T18:05:40.690Z,100.00
2022-11-27T18:08:27.390Z,100.00
2022-11-27T18:11:20.491Z,100.00
2022-11-27T18:14:07.212Z,100.00
2022-11-27T18:16:53.644Z,100.00
2022-11-27T18:19:40.192Z,100.00
2022-11-27T18:22:27.128Z,100.00
2022-11-27T18:25:13.943Z,100.00
2022-11-27T18:28:02.630Z,100.00
2022-11-27T18:30:49.120Z,100.00
2022-11-27T18:33:36.422Z,100.00
2022-11-27T18:36:23.851Z,100.00
2022-11-27T18:39:10.482Z,100.00
2022-11-27T18:41:57.016Z,100.00
2022-11-27T18:44:45.016Z,100.00
2022-11-27T18:47:33.590Z,100.00
2022-11-27T18:50:21.143Z,100.00
2022-11-27T18:53:15.211Z,100.00
2022-11-27T18:56:08.126Z,100.00
2022-11-27T18:58:55.352Z,100.00
2022-11-27T19:01:45.047Z,100.00
2022-11-27T19:04:34.341Z,100.00
2022-11-27T19:11:38.481Z,100.00
2022-11-27T19:14:25.162Z,100.00
2022-11-27T19:17:11.897Z,100.00
2022-11-27T19:20:02.308Z,100.00
2022-11-27T19:22:48.849Z,100.00
2022-11-27T19:25:39.865Z,100.00
2022-11-27T19:28:26.537Z,100.00
2022-11-27T19:31:16.184Z,100.00
2022-11-27T19:34:08.775Z,100.00
2022-11-27T19:36:58.910Z,100.00
2022-11-27T19:39:45.917Z,100.00
2022-11-27T19:42:33.058Z,100.00
2022-11-27T19:45:30.167Z,100.00
2022-11-27T19:48:22.699Z,100.00
2022-11-27T19:51:12.962Z,100.00
2022-11-27T19:54:05.645Z,100.00
2022-11-27T19:56:55.374Z,100.00
2022-11-27T19:59:43.082Z,100.00
2022-11-27T20:02:31.817Z,100.00
2022-11-27T20:05:19.516Z,100.00
2022-11-27T20:08:06.100Z,100.00
2022-11-27T20:10:52.564Z,100.00
2022-11-27T20:13:39.730Z,100.00
2022-11-27T20:16:26.800Z,100.00
2022-11-27T20:19:13.622Z,100.00
2022-11-27T20:22:00.335Z,100.00
2022-11-27T20:25:11.132Z,100.00
2022-11-27T20:27:53.327Z,100.00
2022-11-27T20:30:41.181Z,100.00
2022-11-27T20:33:29.170Z,100.00
2022-11-27T20:36:19.561Z,100.00
2022-11-27T20:39:06.472Z,100.00
2022-11-27T20:41:58.767Z,100.00
2022-11-27T20:44:45.938Z,100.00
2022-11-27T20:47:32.399Z,100.00
2022-11-27T20:50:22.633Z,100.00
2022-11-27T20:53:09.422Z,100.00
2022-11-27T20:55:56.141Z,100.00
2022-11-27T20:58:44.264Z,100.00
2022-11-27T21:01:33.792Z,100.00
2022-11-27T21:04:26.175Z,100.00
2022-11-27T21:07:14.705Z,100.00
2022-11-27T21:10:01.569Z,100.00
2022-11-27T21:12:50.228Z,100.00
2022-11-27T21:15:36.685Z,100.00
2022-11-27T21:18:22.925Z,100.00
2022-11-27T21:21:12.543Z,100.00
2022-11-27T21:23:59.948Z,100.00
2022-11-27T21:26:48.405Z,100.00
2022-11-27T21:29:36.062Z,100.00
2022-11-27T21:32:22.765Z,100.00
2022-11-27T21:35:09.589Z,100.00
2022-11-27T21:37:56.326Z,100.00
2022-11-27T21:40:43.618Z,100.00
2022-11-27T21:43:31.695Z,100.00
2022-11-27T21:46:20.122Z,100.00
2022-11-27T21:49:06.703Z,100.00
2022-11-27T21:51:54.051Z,100.00
2022-11-27T21:54:45.039Z,100.00
2022-11-27T21:57:31.756Z,100.00
2022-11-27T22:00:18.758Z,100.00
2022-11-27T22:03:05.384Z,100.00
2022-11-27T22:06:05.130Z,100.00
2022-11-27T22:08:54.295Z,100.00
2022-11-27T22:11:41.258Z,100.00
2022-11-27T22:14:27.301Z,100.00
2022-11-27T22:17:14.109Z,100.00
2022-11-27T22:20:00.683Z,100.00
2022-11-27T22:22:47.395Z,100.00
2022-11-27T22:25:33.609Z,100.00
2022-11-27T22:28:21.141Z,100.00
2022-11-27T22:31:13.097Z,100.00
2022-11-27T22:34:00.548Z,100.00
2022-11-27T22:36:49.836Z,100.00
2022-11-27T22:39:36.002Z,100.00
2022-11-27T22:42:22.741Z,100.00
2022-11-27T22:45:11.805Z,100.00
2022-11-27T22:47:58.424Z,100.00
2022-11-27T22:50:44.867Z,100.00
2022-11-27T22:53:31.624Z,100.00
2022-11-27T22:56:20.151Z,100.00
2022-11-27T23:02:14.014Z,100.00
2022-11-27T23:05:03.953Z,100.00
2022-11-27T23:07:50.516Z,100.00
2022-11-27T23:10:38.722Z,100.00
2022-11-27T23:13:25.084Z,100.00
2022-11-27T23:16:12.471Z,100.00
2022-11-27T23:18:59.159Z,100.00
2022-11-27T23:21:45.916Z,100.00
2022-11-27T23:24:33.898Z,100.00
2022-11-27T23:27:20.925Z,100.00
2022-11-27T23:30:08.383Z,100.00
2022-11-27T23:32:55.187Z,100.00
2022-11-27T23:35:41.946Z,100.00
2022-11-27T23:38:32.126Z,100.00
2022-11-27T23:41:20.941Z,100.00
2022-11-27T23:44:07.862Z,100.00
2022-11-27T23:46:55.547Z,100.00
2022-11-27T23:49:42.876Z,100.00
2022-11-27T23:52:29.651Z,100.00
2022-11-27T23:55:16.536Z,100.00
2022-11-27T23:58:03.589Z,100.00
